Main page
METAR-TAF:

METAR-TAF

Airports :

Zaragoza Airport

Zaragoza, Spain

latitude: 41-40N, longitude: 001-01W, elevation: 263 m

Current weather observation

The report was made 21 minutes ago, at 23:30 UTC
Wind 16 kt from the West/Northwest, varying between West and Northwest
Temperature 23°C
Humidity 53%
Pressure 1019 hPa
Visibility 10 km or more
no clouds below 1500 m and no cumulonimbus

METAR: LEZG 052330Z 29016KT 260V320 CAVOK 23/13 Q1019

Time: 01:51 (23:51 UTC)

Forecast

The report was made 51 minutes ago, at 23:00 UTC
Forecast valid from 06 at 00 UTC to 06 at 24 UTC
Wind 20 kt from the West/Northwest
Visibility 10 km or more
Few clouds at a height of 5000 ft
Temporary
from 06 at 10 UTC to 06 at 20 UTC
Wind 25 kt from the West/Northwest with gusts up to 35 kt

TAF: LEZG 052300Z 0600/0624 30020KT 9999 FEW050 TX32/0614Z TN16/0606Z TEMPO 0610/0620 30025G35KT

Weather observations and forecasts of more than 4000 airports (METAR and TAF reports).

The available stations are represented by yellow and red dots on the map.

Hover mouse over dot to see the name of the station.

Then click to see weather observations and forecasts.

To change the map : click on the green buttons with a black cross to zoom in, on the green button with a dash to zoom out, or on the green arrows for adjacent maps.


METAR-TAF: